METAR stanice u blizini

 

LYBE - Beograd / Surčin, Srbija
Ažurirano: 04/03/2024 20:00
Vedro
Vedro
 Pravac vetra IJI
Vetar: IJI 26 km/h
Temperatura: 12°C
Tačka rose: 5°C
Vlažnost: 63%
Pritisak: 1007 hPa
Pregled: Vedro
Vidljivost: greater than 10 km
2024/03/04 19:00 LYBE 041900Z 11014KT CAVOK 12/05 Q1007 NOSIG
LYBT - Beograd / Batajnica, Srbija
Ažurirano: 04/03/2024 20:00
Vedro
Vedro
 Pravac vetra I
Vetar: I 20 km/h
Temperatura: 11°C
Tačka rose: 5°C
Vlažnost: 67%
Pritisak: 1007 hPa
Pregled: Vedro
Vidljivost: greater than 10 km
2024/03/04 19:00 LYBT 041900Z 10011KT 070V130 CAVOK 11/05 Q1007 NOSIG
LYVR - Vršac, Srbija
Ažurirano: 04/03/2024 20:00
Vedro
Vedro
 Pravac vetra JI
Vetar: JI 35 km/h, Maks.: 59 km/h
Temperatura: 13°C
Tačka rose: 3°C
Vlažnost: 51%
Pritisak: 1008 hPa
Pregled: Vedro
Vidljivost: greater than 10 km
2024/03/04 19:00 LYVR 041900Z AUTO 13019G32KT CAVOK 13/03 Q1008
 
LYKV - Lađevci, Srbija
Ažurirano: 04/03/2024 20:00
Vedro
Vedro
 Pravac vetra IJI
Vetar: IJI 9 km/h
Temperatura: 13°C
Tačka rose: 6°C
Vlažnost: 63%
Pritisak: 1007 hPa
Pregled: Vedro
Vidljivost: greater than 10 km
2024/03/04 19:00 LYKV 041900Z 12005KT CAVOK 13/06 Q1007 NOSIG
LYNI - Niš, Srbija
Ažurirano: 04/03/2024 20:00
Partly Cloudy
Partly Cloudy
 Pravac vetra I
Vetar: I 15 km/h
Temperatura: 13°C
Tačka rose: 5°C
Vlažnost: 59%
Pritisak: 1008 hPa
Oblaci: Partly Cloudy
Vidljivost: 10 km
Cloud details: Partly Cloudy 1829 m
2024/03/04 19:00 LYNI 041900Z 08008KT 9999 SCT060 13/05 Q1008 NOSIG
BKPR - Priština, Srbija
Ažurirano: 04/03/2024 20:00
Partly Cloudy
Partly Cloudy
 Pravac vetra JI
Vetar: JI 15 km/h
Temperatura: 10°C
Osećaj hladnoće: 8°C
Tačka rose: 6°C
Vlažnost: 76%
Pritisak: 1007 hPa
Oblaci: Partly Cloudy
Vidljivost: 10 km
Cloud details: Partly Cloudy 1524 m
2024/03/04 19:00 BKPR 041900Z 13008KT 9999 SCT050 10/06 Q1007 NOSIG
 
LHPP - Pecs / Pogany, Hungary
Ažurirano: 04/03/2024 19:45
Vedro
Vedro
 Pravac vetra SI
Vetar: SI 7 km/h
Temperatura: 11°C
Tačka rose: 3°C
Vlažnost: 58%
Pritisak: 1008 hPa
Pregled: Vedro
Vidljivost: greater than 10 km
2024/03/04 18:45 LHPP 041845Z AUTO 04004KT CAVOK 11/03 Q1008
LHUD - Szeged, Hungary
Ažurirano: 04/07/2019 01:45
NOT Current
Vedro
Vedro
 Pravac vetra S
Vetar: S 7 km/h
Temperatura: 18°C
Tačka rose: 13°C
Vlažnost: 73%
Pritisak: 1019 hPa
Pregled: Vedro
Vidljivost: greater than 10 km
2019/07/03 23:45 LHUD 032345Z 35004KT CAVOK 18/13 Q1019
LRTR - Timisoara, Romania
Ažurirano: 04/03/2024 20:00
Vedro
Vedro
 Pravac vetra SI
Vetar: SI 11 km/h
Temperatura: 6°C
Osećaj hladnoće: 4°C
Tačka rose: 3°C
Vlažnost: 81%
Pritisak: 1008 hPa
Pregled: Vedro
Vidljivost: greater than 10 km
2024/03/04 19:00 LRTR 041900Z 04006KT CAVOK 06/03 Q1008
 
LRCV - Craiova, Romania
Ažurirano: 04/03/2024 20:00
Vedro
Vedro
 Pravac vetra I
Vetar: I 17 km/h
Temperatura: 9°C
Osećaj hladnoće: 7°C
Tačka rose: 4°C
Vlažnost: 71%
Pritisak: 1010 hPa
Pregled: Vedro
Vidljivost: greater than 10 km
2024/03/04 19:00 LRCV 041900Z 08009KT CAVOK 09/04 Q1010
LBSF - Sofia, Bulgaria
Ažurirano: 04/03/2024 20:00
Mostly Cloudy
Mostly Cloudy
 Pravac vetra JI
Vetar: JI 22 km/h
Temperatura: 9°C
Osećaj hladnoće: 6°C
Tačka rose: 5°C
Vlažnost: 76%
Pritisak: 1010 hPa
Oblaci: Mostly Cloudy
Vidljivost: 10 km
Cloud details: Mostly Cloudy 671 m
2024/03/04 19:00 LBSF 041900Z AUTO 14012KT 9999 BKN022/// 09/05 Q1010 NOSIG
LWSK - Skoplje, Makedonija
Ažurirano: 04/03/2024 20:20
Mostly Cloudy
Mostly Cloudy
 Pravac vetra JJI
Vetar: JJI 6 km/h
Temperatura: 12°C
Tačka rose: 8°C
Vlažnost: 77%
Pritisak: 1008 hPa
Oblaci: Mostly Cloudy
Vidljivost: 10 km
Cloud details: Mostly Cloudy 1829 m
2024/03/04 19:20 LWSK 041920Z 16003KT 130V190 9999 BKN060 12/08 Q1008 NOSIG
 
LYPG - Podgorica, Crna Gora
Ažurirano: 04/03/2024 20:00
Oblačno
Oblačno
 Pravac vetra I
Vetar: I 15 km/h
Temperatura: 12°C
Tačka rose: 10°C
Vlažnost: 88%
Pritisak: 1007 hPa
Oblaci: Oblačno
Vidljivost: 10 km
Cloud details: Few Clouds 1006 m
Partly Cloudy 1524 m
Oblačno 2438 m
2024/03/04 19:00 LYPG 041900Z 10008KT 070V130 9999 FEW033 SCT050 OVC080 12/10 Q1007 NOSIG
LQSA - Sarajevo, Bosna i Hercegovina
Ažurirano: 04/03/2024 20:00
Vedro
Vedro
 Pravac vetra Z
Vetar: Z 6 km/h
Temperatura: 10°C
Tačka rose: 3°C
Vlažnost: 62%
Pritisak: 1005 hPa
Pregled: Vedro
Vidljivost: greater than 10 km
2024/03/04 19:00 LQSA 041900Z 27003KT 210V310 CAVOK 10/03 Q1005 NOSIG
LDOS - Osijek, Hrvatksa
Ažurirano: 04/03/2024 20:00
Vedro
Vedro
 Pravac vetra SSI
Vetar: SSI 15 km/h
Temperatura: 8°C
Osećaj hladnoće: 5°C
Tačka rose: 2°C
Vlažnost: 66%
Pritisak: 1007 hPa
Pregled: Vedro
Vidljivost: greater than 10 km
2024/03/04 19:00 LDOS 041900Z 03008KT CAVOK 08/02 Q1007